San Fernando, Spain
Current Conditions -  °F | °C
As of 1:00 PM on Saturday 25 Oct 2014 (Local Time) from LERT Reporting Station
Clear Clear  
Wind Chill: 77°   Ceiling: Unl
Heat Index: 78°   Visibility: 6mi
Dew Point: 50°   Wind: 5mph
Humidity: 39%   Direction: 140°SE
Pressure: 30.06"   Gusts: NA
Location:  36.48°N, 6.2°W
Report Text: LERT 251100Z 14004KT 090V200 CAVOK 25/10 Q1018 NOSIG
Loading
Personal Weather Stations






























Interactive Weather Map New forecast layout! Learn more

10-Day Weather Forecast

Advertisements
Track Severe Weather on mobile